createdAt,value
2023-03-10T00:01:22.012Z,85.93
2023-03-10T00:06:27.693Z,86.13
2023-03-10T00:11:30.537Z,86.41
2023-03-10T00:16:34.803Z,86.71
2023-03-10T00:21:37.606Z,86.70
2023-03-10T00:26:40.465Z,86.08
2023-03-10T00:31:45.103Z,86.34
2023-03-10T00:36:47.884Z,86.49
2023-03-10T00:41:50.918Z,87.59
2023-03-10T00:46:55.396Z,87.81
2023-03-10T00:51:58.208Z,87.48
2023-03-10T00:57:00.980Z,99.09
2023-03-10T01:02:07.569Z,96.57
2023-03-10T01:07:10.608Z,88.22
2023-03-10T01:12:13.659Z,87.51
2023-03-10T01:17:17.848Z,87.36
2023-03-10T01:22:20.762Z,87.25
2023-03-10T01:27:23.632Z,87.57
2023-03-10T01:32:27.877Z,87.53
2023-03-10T01:37:30.682Z,91.87
2023-03-10T01:42:33.528Z,91.01
2023-03-10T01:47:37.777Z,90.67
2023-03-10T01:52:44.807Z,88.21
2023-03-10T01:57:52.560Z,88.12
2023-03-10T02:03:03.553Z,88.05
2023-03-10T02:08:07.755Z,87.61
2023-03-10T02:13:10.535Z,87.93
2023-03-10T02:18:16.635Z,87.02
2023-03-10T02:23:26.125Z,92.37
2023-03-10T02:28:30.691Z,92.31
2023-03-10T02:33:34.458Z,92.40
2023-03-10T02:38:37.335Z,91.62
2023-03-10T02:43:42.361Z,92.37
2023-03-10T02:48:55.380Z,91.08
2023-03-10T02:54:05.250Z,91.11
2023-03-10T02:59:10.957Z,92.18
2023-03-10T03:04:18.647Z,93.77
2023-03-10T03:09:23.070Z,92.78
2023-03-10T03:14:27.466Z,93.43
2023-03-10T03:19:30.517Z,94.33
2023-03-10T03:24:34.342Z,97.12
2023-03-10T03:29:39.816Z,98.04
2023-03-10T03:34:42.788Z,99.62
2023-03-10T03:39:45.826Z,97.95
2023-03-10T03:44:50.153Z,98.47
2023-03-10T03:49:53.435Z,97.04
2023-03-10T03:54:56.386Z,95.52
2023-03-10T04:00:00.731Z,96.35
2023-03-10T04:05:05.791Z,95.05
2023-03-10T04:10:10.862Z,92.00
2023-03-10T04:15:15.412Z,88.26
2023-03-10T04:20:18.529Z,88.37
2023-03-10T04:25:25.119Z,88.06
2023-03-10T04:30:30.034Z,87.95
2023-03-10T04:35:36.141Z,87.21
2023-03-10T04:40:39.083Z,87.81
2023-03-10T04:45:43.443Z,87.48
2023-03-10T04:50:46.520Z,87.76
2023-03-10T04:55:51.439Z,87.91
2023-03-10T05:01:03.304Z,87.82
2023-03-10T05:06:15.493Z,87.85
2023-03-10T05:11:20.770Z,87.75
2023-03-10T05:16:25.440Z,87.87
2023-03-10T05:21:29.962Z,87.09
2023-03-10T05:26:34.964Z,87.68
2023-03-10T05:31:40.928Z,87.58
2023-03-10T05:36:49.030Z,87.64
2023-03-10T05:41:53.045Z,87.61
2023-03-10T05:46:58.541Z,87.56
2023-03-10T05:52:01.527Z,87.55
2023-03-10T05:57:04.682Z,87.40
2023-03-10T06:02:10.147Z,87.44
2023-03-10T06:07:12.985Z,87.66
2023-03-10T06:12:15.791Z,87.44
2023-03-10T06:17:20.000Z,87.49
2023-03-10T06:22:22.790Z,87.57
2023-03-10T06:27:25.721Z,87.49
2023-03-10T06:32:29.887Z,87.35
2023-03-10T06:37:32.719Z,87.24
2023-03-10T06:42:35.526Z,87.59
2023-03-10T06:47:39.974Z,87.62
2023-03-10T06:52:43.198Z,87.56
2023-03-10T06:57:46.015Z,87.58
2023-03-10T07:02:50.110Z,87.24
2023-03-10T07:07:52.844Z,87.32
2023-03-10T07:12:58.843Z,87.72
2023-03-10T07:18:03.023Z,87.23
2023-03-10T07:23:05.743Z,88.61
2023-03-10T07:28:08.925Z,87.81
2023-03-10T07:33:13.070Z,87.47
2023-03-10T07:38:15.808Z,87.49
2023-03-10T07:43:18.576Z,87.75
2023-03-10T07:48:22.776Z,87.24
2023-03-10T07:53:25.721Z,87.26
2023-03-10T07:58:28.498Z,86.70
2023-03-10T08:03:34.106Z,87.50
2023-03-10T08:08:37.111Z,87.49
2023-03-10T08:13:40.419Z,88.08
2023-03-10T08:18:44.850Z,88.17
2023-03-10T08:23:47.719Z,88.62
2023-03-10T08:28:50.637Z,87.62
2023-03-10T08:33:57.742Z,87.95
2023-03-10T08:39:02.141Z,87.29
2023-03-10T08:44:05.181Z,88.07
2023-03-10T08:49:09.792Z,87.41
2023-03-10T08:54:15.329Z,88.47
2023-03-10T08:59:19.270Z,88.61
2023-03-10T09:04:23.557Z,88.24
2023-03-10T09:09:26.345Z,88.67
2023-03-10T09:14:29.094Z,88.12
2023-03-10T09:19:33.327Z,88.90
2023-03-10T09:24:36.149Z,88.77
2023-03-10T09:29:43.573Z,87.62
2023-03-10T09:34:47.892Z,87.92
2023-03-10T09:39:50.662Z,88.40
2023-03-10T09:45:04.144Z,88.89
2023-03-10T09:50:24.736Z,87.85
2023-03-10T09:55:30.295Z,88.15
2023-03-10T10:00:38.368Z,88.14
2023-03-10T10:05:42.980Z,88.25
2023-03-10T10:10:49.239Z,88.66
2023-03-10T10:16:18.184Z,88.69
2023-03-10T10:21:28.188Z,89.20
2023-03-10T10:26:33.504Z,88.86
2023-03-10T10:31:36.386Z,88.22
2023-03-10T10:36:51.991Z,88.13
2023-03-10T10:41:55.408Z,88.79
2023-03-10T10:46:58.818Z,88.83
2023-03-10T10:52:05.593Z,88.52
2023-03-10T10:57:18.646Z,89.35
2023-03-10T11:02:25.422Z,89.30
2023-03-10T11:07:29.625Z,89.65
2023-03-10T11:12:36.932Z,88.76
2023-03-10T11:17:44.772Z,88.52
2023-03-10T11:22:53.403Z,89.60
2023-03-10T11:28:05.500Z,89.83
2023-03-10T11:33:21.133Z,89.32
2023-03-10T11:38:38.193Z,89.15
2023-03-10T11:43:53.897Z,88.96
2023-03-10T11:49:05.230Z,89.56
2023-03-10T11:54:16.460Z,89.44
2023-03-10T11:59:22.953Z,87.42
2023-03-10T12:04:31.836Z,88.77
2023-03-10T12:09:42.222Z,88.97
2023-03-10T12:14:47.311Z,88.90
2023-03-10T12:20:21.268Z,88.63
2023-03-10T12:25:45.155Z,88.28
2023-03-10T12:30:50.973Z,88.89
2023-03-10T12:35:56.226Z,88.72
2023-03-10T12:41:01.880Z,88.68
2023-03-10T12:46:05.699Z,89.90
2023-03-10T12:51:13.932Z,89.19
2023-03-10T12:56:23.856Z,88.75
2023-03-10T13:01:33.227Z,89.21
2023-03-10T13:06:39.699Z,89.66
2023-03-10T13:11:46.030Z,88.78
2023-03-10T13:16:54.546Z,89.38
2023-03-10T13:21:57.737Z,89.18
2023-03-10T13:27:07.158Z,88.75
2023-03-10T13:32:19.636Z,88.47
2023-03-10T13:37:22.588Z,88.81
2023-03-10T13:42:42.763Z,89.54
2023-03-10T13:47:47.293Z,90.93
2023-03-10T13:52:54.089Z,92.55
2023-03-10T13:57:59.471Z,90.42
2023-03-10T14:03:02.664Z,88.36
2023-03-10T14:08:06.562Z,88.54
2023-03-10T14:13:40.173Z,89.02
2023-03-10T14:18:44.042Z,90.00
2023-03-10T14:23:46.881Z,89.58
2023-03-10T14:28:51.032Z,89.20
2023-03-10T14:33:54.902Z,88.95
2023-03-10T14:38:57.672Z,88.83
2023-03-10T14:44:02.600Z,89.02
2023-03-10T14:49:06.784Z,88.92
2023-03-10T14:54:17.795Z,89.14
2023-03-10T14:59:21.917Z,87.63
2023-03-10T15:04:24.833Z,92.66
2023-03-10T15:09:27.616Z,90.34
2023-03-10T15:14:31.737Z,89.04
2023-03-10T15:19:34.507Z,88.97
2023-03-10T15:24:37.247Z,89.66
2023-03-10T15:29:41.427Z,88.97
2023-03-10T15:34:44.201Z,88.44
2023-03-10T15:39:46.995Z,88.56
2023-03-10T15:44:51.749Z,88.28
2023-03-10T15:49:54.759Z,88.39
2023-03-10T15:54:57.937Z,88.48
2023-03-10T16:00:02.128Z,88.22
2023-03-10T16:05:08.311Z,88.14
2023-03-10T16:10:13.084Z,88.99
2023-03-10T16:15:18.453Z,89.38
2023-03-10T16:20:21.550Z,88.71
2023-03-10T16:25:24.323Z,88.47
2023-03-10T16:30:28.561Z,89.26
2023-03-10T16:35:31.521Z,88.71
2023-03-10T16:40:34.296Z,88.51
2023-03-10T16:45:38.509Z,88.69
2023-03-10T16:50:41.330Z,88.26
2023-03-10T16:55:44.122Z,88.15
2023-03-10T17:00:48.282Z,88.19
2023-03-10T17:05:53.697Z,88.52
2023-03-10T17:10:56.493Z,88.18
2023-03-10T17:16:01.172Z,88.43
2023-03-10T17:21:12.320Z,87.96
2023-03-10T17:26:16.024Z,88.15
2023-03-10T17:31:23.593Z,88.38
2023-03-10T17:36:27.118Z,87.76
2023-03-10T17:41:30.921Z,88.10
2023-03-10T17:46:35.117Z,87.91
2023-03-10T17:51:39.199Z,88.16
2023-03-10T17:56:43.275Z,87.78
2023-03-10T18:01:49.187Z,87.70
2023-03-10T18:06:52.024Z,88.20
2023-03-10T18:11:57.135Z,87.68
2023-03-10T18:17:03.080Z,86.97
2023-03-10T18:22:06.616Z,85.79
2023-03-10T18:27:09.419Z,86.52
2023-03-10T18:32:13.835Z,86.84
2023-03-10T18:37:16.635Z,88.07
2023-03-10T18:42:21.731Z,87.26
2023-03-10T18:47:25.888Z,87.85
2023-03-10T18:52:28.675Z,87.55
2023-03-10T18:57:32.517Z,87.83
2023-03-10T19:02:36.710Z,87.83
2023-03-10T19:07:39.740Z,87.84
2023-03-10T19:12:43.134Z,87.95
2023-03-10T19:17:47.321Z,87.86
2023-03-10T19:22:51.557Z,89.41
2023-03-10T19:27:54.496Z,87.93
2023-03-10T19:32:58.691Z,87.65
2023-03-10T19:38:01.469Z,88.76
2023-03-10T19:43:04.482Z,88.59
2023-03-10T19:48:08.877Z,88.21
2023-03-10T19:53:11.721Z,87.62
2023-03-10T19:58:14.491Z,88.24
2023-03-10T20:03:19.328Z,88.35
2023-03-10T20:08:22.982Z,89.26
2023-03-10T20:13:25.752Z,89.20
2023-03-10T20:18:29.976Z,88.79
2023-03-10T20:23:33.444Z,89.23
2023-03-10T20:28:39.574Z,87.79
2023-03-10T20:33:43.849Z,87.54
2023-03-10T20:38:47.610Z,86.97
2023-03-10T20:43:51.204Z,87.77
2023-03-10T20:48:55.506Z,87.80
2023-03-10T20:53:58.517Z,89.32
2023-03-10T20:59:01.819Z,88.56
2023-03-10T21:04:06.534Z,88.48
2023-03-10T21:09:09.387Z,88.44
2023-03-10T21:14:12.159Z,88.55
2023-03-10T21:19:16.728Z,90.00
2023-03-10T21:24:19.546Z,89.92
2023-03-10T21:29:22.372Z,89.22
2023-03-10T21:34:26.587Z,88.18
2023-03-10T21:39:29.447Z,90.27
2023-03-10T21:44:32.335Z,90.78
2023-03-10T21:49:37.294Z,89.98
2023-03-10T21:54:40.690Z,89.78
2023-03-10T21:59:43.559Z,89.81
2023-03-10T22:04:47.814Z,90.78
2023-03-10T22:09:50.752Z,89.75
2023-03-10T22:14:57.438Z,89.20
2023-03-10T22:20:01.941Z,93.27
2023-03-10T22:25:05.078Z,90.99
2023-03-10T22:30:09.143Z,89.21
2023-03-10T22:35:13.881Z,89.74
2023-03-10T22:40:18.797Z,89.59
2023-03-10T22:45:24.291Z,89.88
2023-03-10T22:50:32.543Z,89.74
2023-03-10T22:55:38.206Z,91.42
2023-03-10T23:00:42.533Z,91.16
2023-03-10T23:05:47.001Z,90.04
2023-03-10T23:10:50.227Z,89.77
2023-03-10T23:15:53.410Z,89.16
2023-03-10T23:20:57.911Z,90.83
2023-03-10T23:26:01.096Z,88.82
2023-03-10T23:31:04.499Z,90.50
2023-03-10T23:36:11.663Z,91.21
2023-03-10T23:41:14.851Z,89.47
2023-03-10T23:46:17.778Z,88.92
2023-03-10T23:51:22.174Z,87.94
2023-03-10T23:56:24.979Z,88.10
